Time;durP1;ratioP1;P1;durP2;ratioP2;P2;SDS_P1;SDS_P2;PMS_P1;PMS_P2;Temp;Humidity;BMP_temperature;BMP_pressure;BME280_temperature;BME280_humidity;BME280_pressure;Samples;Min_cycle;Max_cycle;Signal;HPM_P1;HPM_P2
2023/08/23 00:00:14;;;;;;;3.80;3.47;;;;;;;;;;5080538;28;20265;-66
2023/08/23 00:02:42;;;;;;;3.50;3.17;;;;;;;;;;5080424;28;20231;-66
2023/08/23 00:05:10;;;;;;;3.88;3.50;;;;;;;;;;5080197;28;20230;-66
2023/08/23 00:07:37;;;;;;;3.70;3.40;;;;;;;;;;5079611;28;20204;-67
2023/08/23 00:10:05;;;;;;;3.83;3.20;;;;;;;;;;5080338;28;20494;-66
2023/08/23 00:12:33;;;;;;;4.05;3.40;;;;;;;;;;5080386;28;20299;-66
2023/08/23 00:15:01;;;;;;;4.55;3.40;;;;;;;;;;5080232;28;20592;-66
2023/08/23 00:17:30;;;;;;;3.47;3.17;;;;;;;;;;5080477;28;20205;-66
2023/08/23 00:19:58;;;;;;;3.60;3.30;;;;;;;;;;5080469;28;20269;-66
2023/08/23 00:22:26;;;;;;;4.22;3.80;;;;;;;;;;5080221;28;20269;-66
2023/08/23 00:24:53;;;;;;;5.13;3.50;;;;;;;;;;5080523;28;20207;-66
2023/08/23 00:27:21;;;;;;;3.58;3.30;;;;;;;;;;5079980;28;20594;-66
2023/08/23 00:29:49;;;;;;;3.65;3.35;;;;;;;;;;5079915;28;20266;-67
2023/08/23 00:32:17;;;;;;;3.72;3.42;;;;;;;;;;5080167;28;20204;-66
2023/08/23 00:34:46;;;;;;;3.40;3.20;;;;;;;;;;5079808;28;20466;-66
2023/08/23 00:37:14;;;;;;;3.45;3.15;;;;;;;;;;5079518;28;20205;-66
2023/08/23 00:39:41;;;;;;;3.75;3.40;;;;;;;;;;5079347;28;20634;-66
2023/08/23 00:42:09;;;;;;;3.55;3.25;;;;;;;;;;5079626;28;20204;-66
2023/08/23 00:44:36;;;;;;;3.53;3.20;;;;;;;;;;5079891;28;20303;-66
2023/08/23 00:47:04;;;;;;;3.70;3.40;;;;;;;;;;5079679;28;20262;-66
2023/08/23 00:49:34;;;;;;;3.50;3.20;;;;;;;;;;5079908;28;20215;-66
2023/08/23 00:52:04;;;;;;;3.55;3.25;;;;;;;;;;5079988;28;20626;-66
2023/08/23 00:54:32;;;;;;;3.95;3.58;;;;;;;;;;5078389;28;20225;-66
2023/08/23 00:57:01;;;;;;;3.00;2.80;;;;;;;;;;5079418;28;20204;-66
2023/08/23 00:59:31;;;;;;;3.97;3.58;;;;;;;;;;5079165;28;20215;-66
2023/08/23 01:01:58;;;;;;;3.60;3.17;;;;;;;;;;5079466;28;20235;-66
2023/08/23 01:04:26;;;;;;;3.60;3.30;;;;;;;;;;5079230;28;20607;-66
2023/08/23 01:06:58;;;;;;;3.58;3.22;;;;;;;;;;5078779;28;20777;-66
2023/08/23 01:09:33;;;;;;;3.80;3.17;;;;;;;;;;5078958;28;20654;-66
2023/08/23 01:12:05;;;;;;;3.55;3.22;;;;;;;;;;5079177;28;20662;-66
2023/08/23 01:14:38;;;;;;;3.33;3.05;;;;;;;;;;5079033;28;20228;-66
2023/08/23 01:17:07;;;;;;;3.78;3.35;;;;;;;;;;5079427;28;20205;-66
2023/08/23 01:19:43;;;;;;;3.38;3.17;;;;;;;;;;5078938;28;20243;-66
2023/08/23 01:22:12;;;;;;;3.20;2.95;;;;;;;;;;5079247;28;20203;-67
2023/08/23 01:24:41;;;;;;;6.03;3.60;;;;;;;;;;5078856;28;20492;-66
2023/08/23 01:27:09;;;;;;;3.53;3.33;;;;;;;;;;5078770;28;20266;-66
2023/08/23 01:29:37;;;;;;;3.38;3.08;;;;;;;;;;5078832;28;20219;-66
2023/08/23 01:32:12;;;;;;;4.03;3.67;;;;;;;;;;5078894;28;20208;-66
2023/08/23 01:34:42;;;;;;;3.60;3.28;;;;;;;;;;5078484;28;20223;-66
2023/08/23 01:37:10;;;;;;;3.20;2.95;;;;;;;;;;5078590;28;20215;-66
2023/08/23 01:39:38;;;;;;;3.50;3.20;;;;;;;;;;5078539;28;20204;-66
2023/08/23 01:42:08;;;;;;;3.47;3.00;;;;;;;;;;5078839;28;20204;-66
2023/08/23 01:44:35;;;;;;;4.68;3.65;;;;;;;;;;5078534;28;20292;-66
2023/08/23 01:47:03;;;;;;;3.63;3.33;;;;;;;;;;5078710;28;20205;-66
2023/08/23 01:49:31;;;;;;;3.58;3.33;;;;;;;;;;5078626;28;20215;-66
2023/08/23 01:51:58;;;;;;;3.65;3.30;;;;;;;;;;5078398;28;20214;-66
2023/08/23 01:54:26;;;;;;;3.58;3.30;;;;;;;;;;5077939;28;20463;-66
2023/08/23 01:56:53;;;;;;;3.28;3.08;;;;;;;;;;5078409;28;20208;-66
2023/08/23 01:59:23;;;;;;;3.70;3.28;;;;;;;;;;5078221;28;20286;-66
2023/08/23 02:01:50;;;;;;;4.38;3.47;;;;;;;;;;5078194;28;20204;-66
2023/08/23 02:04:19;;;;;;;3.33;3.03;;;;;;;;;;5077885;28;20208;-66
2023/08/23 02:06:50;;;;;;;3.28;3.05;;;;;;;;;;5077270;28;20228;-66
2023/08/23 02:09:17;;;;;;;3.35;3.15;;;;;;;;;;5078142;28;20203;-66
2023/08/23 02:11:45;;;;;;;3.65;3.33;;;;;;;;;;5078194;28;20245;-67
2023/08/23 02:14:12;;;;;;;3.45;3.20;;;;;;;;;;5078030;28;20406;-66
2023/08/23 02:16:42;;;;;;;3.60;3.30;;;;;;;;;;5077945;28;20272;-66
2023/08/23 02:19:09;;;;;;;3.70;3.40;;;;;;;;;;5078236;28;20204;-66
2023/08/23 02:21:37;;;;;;;4.00;3.10;;;;;;;;;;5077965;28;20599;-66
2023/08/23 02:24:07;;;;;;;4.07;2.88;;;;;;;;;;5077932;28;20285;-66
2023/08/23 02:26:35;;;;;;;3.35;3.05;;;;;;;;;;5077771;28;20232;-66
2023/08/23 02:29:03;;;;;;;3.38;3.08;;;;;;;;;;5077369;28;20212;-66
2023/08/23 02:31:31;;;;;;;3.25;2.95;;;;;;;;;;5077900;28;20211;-66
2023/08/23 02:34:00;;;;;;;3.30;3.00;;;;;;;;;;5077774;28;20650;-66
2023/08/23 02:36:28;;;;;;;3.33;3.03;;;;;;;;;;5077155;28;20227;-66
2023/08/23 02:38:56;;;;;;;3.40;3.20;;;;;;;;;;5077633;28;20273;-66
2023/08/23 02:41:24;;;;;;;3.00;2.80;;;;;;;;;;5077539;28;20627;-66
2023/08/23 02:43:51;;;;;;;3.28;3.00;;;;;;;;;;5077465;28;20204;-66
2023/08/23 02:46:19;;;;;;;3.90;3.35;;;;;;;;;;5077287;28;20204;-66
2023/08/23 02:48:47;;;;;;;3.28;3.05;;;;;;;;;;5077388;28;20258;-66
2023/08/23 02:51:16;;;;;;;3.30;3.10;;;;;;;;;;5077300;28;20205;-66
2023/08/23 02:53:44;;;;;;;4.00;3.60;;;;;;;;;;5077248;28;20236;-66
2023/08/23 02:56:11;;;;;;;3.72;3.30;;;;;;;;;;5077337;28;20224;-66
2023/08/23 02:58:39;;;;;;;3.40;3.10;;;;;;;;;;5077170;28;20235;-66
2023/08/23 03:01:06;;;;;;;3.40;3.20;;;;;;;;;;5077044;28;20218;-66
2023/08/23 03:03:34;;;;;;;3.35;3.13;;;;;;;;;;5077579;28;20211;-66
2023/08/23 03:06:01;;;;;;;3.70;3.50;;;;;;;;;;5077229;28;20236;-66
2023/08/23 03:08:31;;;;;;;3.42;3.15;;;;;;;;;;5077103;28;20314;-65
2023/08/23 03:11:05;;;;;;;3.70;3.40;;;;;;;;;;5077227;28;20524;-66
2023/08/23 03:13:33;;;;;;;3.60;3.30;;;;;;;;;;5077528;28;20464;-66
2023/08/23 03:16:01;;;;;;;3.35;3.05;;;;;;;;;;5076940;28;20247;-66
2023/08/23 03:18:29;;;;;;;3.60;3.30;;;;;;;;;;5080451;28;20210;-66
2023/08/23 03:20:56;;;;;;;3.30;3.00;;;;;;;;;;5081412;28;20295;-66
2023/08/23 03:23:24;;;;;;;3.78;3.47;;;;;;;;;;5081046;28;20204;-66
2023/08/23 03:25:53;;;;;;;3.97;3.67;;;;;;;;;;5081284;28;20204;-66
2023/08/23 03:28:21;;;;;;;3.85;3.55;;;;;;;;;;5080777;28;20204;-66
2023/08/23 03:30:49;;;;;;;3.70;3.35;;;;;;;;;;5080961;28;20204;-66
2023/08/23 03:33:17;;;;;;;3.90;3.60;;;;;;;;;;5080778;28;20309;-65
2023/08/23 03:35:44;;;;;;;3.70;3.40;;;;;;;;;;5080709;28;20331;-65
2023/08/23 03:38:12;;;;;;;3.70;3.40;;;;;;;;;;5080338;28;20277;-65
2023/08/23 03:40:40;;;;;;;3.92;3.50;;;;;;;;;;5080239;28;20474;-66
2023/08/23 03:43:09;;;;;;;3.35;3.15;;;;;;;;;;5080589;28;20205;-66
2023/08/23 03:45:37;;;;;;;3.55;3.25;;;;;;;;;;5080491;28;20238;-66
2023/08/23 03:48:05;;;;;;;4.00;3.70;;;;;;;;;;5080266;28;20266;-66
2023/08/23 03:50:36;;;;;;;3.70;3.40;;;;;;;;;;5080448;28;20633;-66
2023/08/23 03:53:04;;;;;;;3.42;3.13;;;;;;;;;;5080197;28;20565;-66
2023/08/23 03:55:31;;;;;;;3.83;3.53;;;;;;;;;;5079804;28;20240;-66
2023/08/23 03:57:59;;;;;;;3.30;3.10;;;;;;;;;;5080139;28;20214;-66
2023/08/23 04:00:28;;;;;;;3.58;3.20;;;;;;;;;;5079921;28;20240;-66
2023/08/23 04:02:56;;;;;;;3.38;3.17;;;;;;;;;;5079976;28;20531;-65
2023/08/23 04:05:23;;;;;;;3.88;3.13;;;;;;;;;;5079304;28;20653;-65
2023/08/23 04:07:51;;;;;;;3.45;3.20;;;;;;;;;;5079880;28;20230;-65
2023/08/23 04:10:19;;;;;;;3.53;3.08;;;;;;;;;;5079674;28;20243;-66
2023/08/23 04:12:46;;;;;;;3.50;3.20;;;;;;;;;;5080290;28;20474;-66
2023/08/23 04:15:14;;;;;;;3.40;3.10;;;;;;;;;;5078554;28;20204;-66
2023/08/23 04:17:46;;;;;;;3.80;3.40;;;;;;;;;;5079108;28;20212;-65
2023/08/23 04:20:19;;;;;;;3.85;3.35;;;;;;;;;;5078642;28;20204;-66
2023/08/23 04:22:47;;;;;;;3.78;3.10;;;;;;;;;;5078987;28;20212;-65
2023/08/23 04:25:23;;;;;;;3.60;3.30;;;;;;;;;;5079654;28;20219;-65
2023/08/23 04:27:53;;;;;;;3.83;3.42;;;;;;;;;;5079278;28;20202;-65
2023/08/23 04:30:24;;;;;;;3.30;3.10;;;;;;;;;;5077740;28;20208;-66
2023/08/23 04:32:59;;;;;;;4.18;3.28;;;;;;;;;;5078622;28;20204;-66
2023/08/23 04:35:29;;;;;;;3.72;3.13;;;;;;;;;;5077796;28;20204;-65
2023/08/23 04:37:59;;;;;;;3.70;3.40;;;;;;;;;;5078479;28;20210;-66
2023/08/23 04:40:28;;;;;;;3.22;3.03;;;;;;;;;;5079082;28;20458;-66
2023/08/23 04:43:00;;;;;;;3.22;3.03;;;;;;;;;;5077660;28;20215;-66
2023/08/23 04:45:28;;;;;;;3.20;3.00;;;;;;;;;;5078133;28;20211;-65
2023/08/23 04:48:02;;;;;;;3.40;3.20;;;;;;;;;;5077051;28;20200;-65
2023/08/23 04:50:34;;;;;;;3.30;3.00;;;;;;;;;;5077146;28;20740;-65
2023/08/23 04:53:02;;;;;;;3.60;3.30;;;;;;;;;;5077858;28;20204;-66
2023/08/23 04:55:29;;;;;;;3.40;3.20;;;;;;;;;;5077737;28;20204;-65
2023/08/23 04:57:57;;;;;;;3.13;2.88;;;;;;;;;;5076980;28;20204;-65
2023/08/23 05:00:24;;;;;;;3.47;3.17;;;;;;;;;;5077579;28;20236;-66
2023/08/23 05:02:52;;;;;;;3.35;3.15;;;;;;;;;;5076959;28;20224;-65
2023/08/23 05:05:21;;;;;;;3.00;2.80;;;;;;;;;;5076215;28;20251;-65
2023/08/23 05:07:49;;;;;;;3.53;3.22;;;;;;;;;;5076819;28;20219;-66
2023/08/23 05:10:17;;;;;;;4.00;3.22;;;;;;;;;;5076873;28;20212;-66
2023/08/23 05:12:45;;;;;;;3.20;2.70;;;;;;;;;;5076903;28;20617;-66
2023/08/23 05:15:12;;;;;;;3.78;3.15;;;;;;;;;;5076002;28;20208;-66
2023/08/23 05:17:40;;;;;;;3.20;2.90;;;;;;;;;;5075458;28;20223;-66
2023/08/23 05:20:09;;;;;;;2.95;2.70;;;;;;;;;;5074628;28;20231;-66
2023/08/23 05:22:38;;;;;;;3.00;2.70;;;;;;;;;;5076418;28;20208;-65
2023/08/23 05:25:06;;;;;;;3.42;3.13;;;;;;;;;;5076697;28;20211;-65
2023/08/23 05:27:34;;;;;;;3.30;3.10;;;;;;;;;;5075686;28;20707;-65
2023/08/23 05:30:03;;;;;;;3.63;3.22;;;;;;;;;;5076270;28;20357;-66
2023/08/23 05:32:32;;;;;;;3.20;3.00;;;;;;;;;;5075267;28;20210;-66
2023/08/23 05:35:00;;;;;;;3.17;2.95;;;;;;;;;;5075459;28;20496;-66
2023/08/23 05:37:28;;;;;;;3.28;3.00;;;;;;;;;;5075313;28;20235;-65
2023/08/23 05:39:57;;;;;;;3.20;2.90;;;;;;;;;;5074763;28;20227;-66
2023/08/23 05:42:25;;;;;;;2.92;2.70;;;;;;;;;;5074836;28;20405;-66
2023/08/23 05:44:54;;;;;;;3.88;3.22;;;;;;;;;;5074829;28;20205;-66
2023/08/23 05:47:21;;;;;;;3.30;3.00;;;;;;;;;;5075097;28;20265;-66
2023/08/23 05:49:49;;;;;;;3.72;3.40;;;;;;;;;;5075253;28;20204;-65
2023/08/23 05:52:17;;;;;;;2.85;2.65;;;;;;;;;;5075689;28;20217;-66
2023/08/23 05:54:44;;;;;;;3.45;3.15;;;;;;;;;;5075115;28;20269;-66
2023/08/23 05:57:13;;;;;;;3.60;3.30;;;;;;;;;;5074975;28;20500;-66
2023/08/23 05:59:41;;;;;;;3.40;3.10;;;;;;;;;;5075203;28;20204;-66
2023/08/23 06:02:09;;;;;;;3.42;3.22;;;;;;;;;;5075394;28;20251;-66
2023/08/23 06:04:37;;;;;;;3.47;3.28;;;;;;;;;;5074854;28;20588;-65
2023/08/23 06:07:05;;;;;;;3.28;3.08;;;;;;;;;;5074524;28;20256;-66
2023/08/23 06:09:34;;;;;;;3.50;3.20;;;;;;;;;;5075435;28;20551;-66
2023/08/23 06:12:01;;;;;;;3.80;3.50;;;;;;;;;;5075566;28;20287;-66
2023/08/23 06:14:31;;;;;;;3.97;3.33;;;;;;;;;;5075386;28;20302;-65
2023/08/23 06:16:58;;;;;;;3.58;3.28;;;;;;;;;;5075066;28;20243;-66
2023/08/23 06:19:26;;;;;;;3.88;3.58;;;;;;;;;;5075664;28;20600;-65
2023/08/23 06:21:54;;;;;;;3.55;3.33;;;;;;;;;;5075879;28;20235;-65
2023/08/23 06:24:21;;;;;;;3.70;3.40;;;;;;;;;;5075631;28;20250;-65
2023/08/23 06:26:50;;;;;;;3.65;3.35;;;;;;;;;;5074627;28;20234;-65
2023/08/23 06:29:18;;;;;;;3.60;3.40;;;;;;;;;;5075654;28;20291;-66
2023/08/23 06:31:47;;;;;;;3.80;3.50;;;;;;;;;;5075385;28;20212;-65
2023/08/23 06:34:15;;;;;;;3.85;3.40;;;;;;;;;;5074842;28;20208;-65
2023/08/23 06:36:43;;;;;;;3.83;3.42;;;;;;;;;;5074933;28;20635;-65
2023/08/23 06:39:11;;;;;;;4.10;3.80;;;;;;;;;;5074956;28;20207;-65
2023/08/23 06:41:38;;;;;;;4.13;3.38;;;;;;;;;;5074951;28;20236;-65
2023/08/23 06:44:06;;;;;;;4.00;3.70;;;;;;;;;;5075060;28;20211;-65
2023/08/23 06:46:34;;;;;;;4.20;3.80;;;;;;;;;;5075577;28;20203;-65
2023/08/23 06:49:04;;;;;;;4.25;3.85;;;;;;;;;;5074985;28;20580;-66
2023/08/23 06:51:31;;;;;;;4.78;3.95;;;;;;;;;;5074383;28;20505;-66
2023/08/23 06:53:59;;;;;;;4.28;3.88;;;;;;;;;;5074049;28;20295;-66
2023/08/23 06:56:29;;;;;;;3.88;3.58;;;;;;;;;;5074482;28;20267;-66
2023/08/23 06:58:57;;;;;;;3.97;3.55;;;;;;;;;;5075625;28;20204;-65
2023/08/23 07:01:25;;;;;;;4.03;3.72;;;;;;;;;;5074396;28;20314;-65
2023/08/23 07:03:53;;;;;;;3.80;3.50;;;;;;;;;;5074783;28;20208;-66
2023/08/23 07:06:23;;;;;;;3.78;3.40;;;;;;;;;;5074564;28;20236;-66
2023/08/23 07:08:51;;;;;;;4.10;3.60;;;;;;;;;;5076033;28;20243;-67
2023/08/23 07:11:19;;;;;;;3.70;3.40;;;;;;;;;;5074895;28;20633;-66
2023/08/23 07:13:47;;;;;;;3.90;3.53;;;;;;;;;;5074872;28;20281;-66
2023/08/23 07:16:14;;;;;;;3.60;3.30;;;;;;;;;;5074034;28;20215;-65
2023/08/23 07:18:42;;;;;;;4.18;3.88;;;;;;;;;;5074497;28;20244;-66
2023/08/23 07:21:10;;;;;;;3.90;3.60;;;;;;;;;;5074631;28;20203;-66
2023/08/23 07:23:40;;;;;;;4.15;3.85;;;;;;;;;;5075340;28;20684;-66
2023/08/23 07:26:09;;;;;;;3.80;3.50;;;;;;;;;;5074256;28;20312;-65
2023/08/23 07:28:37;;;;;;;4.78;3.92;;;;;;;;;;5074889;28;20204;-66
2023/08/23 07:31:04;;;;;;;4.05;3.75;;;;;;;;;;5074545;28;20303;-66
2023/08/23 07:33:33;;;;;;;3.47;3.15;;;;;;;;;;5074412;28;20200;-66
2023/08/23 07:36:02;;;;;;;3.85;3.38;;;;;;;;;;5074237;28;20802;-66
2023/08/23 07:38:32;;;;;;;3.83;3.38;;;;;;;;;;5073969;28;20293;-66
2023/08/23 07:41:02;;;;;;;3.40;3.10;;;;;;;;;;5073865;28;20215;-66
2023/08/23 07:43:29;;;;;;;3.42;3.13;;;;;;;;;;5074414;28;20454;-66
2023/08/23 07:45:58;;;;;;;4.30;3.70;;;;;;;;;;5074545;28;20270;-66
2023/08/23 07:48:25;;;;;;;4.53;3.55;;;;;;;;;;5073317;28;20331;-66
2023/08/23 07:50:53;;;;;;;3.70;3.40;;;;;;;;;;5073724;28;20204;-66
2023/08/23 07:53:21;;;;;;;4.28;3.60;;;;;;;;;;5073633;28;20204;-66
2023/08/23 07:55:49;;;;;;;3.55;3.25;;;;;;;;;;5074057;28;20269;-65
2023/08/23 07:58:18;;;;;;;3.83;3.53;;;;;;;;;;5074155;28;20231;-66
2023/08/23 08:00:45;;;;;;;4.35;3.92;;;;;;;;;;5073904;28;20200;-66
2023/08/23 08:03:13;;;;;;;4.45;4.00;;;;;;;;;;5075581;28;20205;-66
2023/08/23 08:05:41;;;;;;;4.13;3.72;;;;;;;;;;5077558;28;20268;-66
2023/08/23 08:08:09;;;;;;;3.65;3.35;;;;;;;;;;5078193;28;20391;-66
2023/08/23 08:10:36;;;;;;;3.90;3.60;;;;;;;;;;5078033;28;20325;-65
2023/08/23 08:13:04;;;;;;;3.95;3.40;;;;;;;;;;5077760;28;20460;-66
2023/08/23 08:15:33;;;;;;;4.32;4.03;;;;;;;;;;5078092;28;20205;-66
2023/08/23 08:18:02;;;;;;;3.88;3.58;;;;;;;;;;5077963;28;20273;-66
2023/08/23 08:20:30;;;;;;;4.18;3.88;;;;;;;;;;5077647;28;20231;-66
2023/08/23 08:22:58;;;;;;;4.40;4.00;;;;;;;;;;5077971;28;20204;-66
2023/08/23 08:25:26;;;;;;;3.95;3.65;;;;;;;;;;5077866;28;20569;-66
2023/08/23 08:27:54;;;;;;;4.05;3.67;;;;;;;;;;5077541;28;20204;-66
2023/08/23 08:30:22;;;;;;;3.75;3.55;;;;;;;;;;5078128;28;20204;-66
2023/08/23 08:32:51;;;;;;;4.13;3.83;;;;;;;;;;5078148;28;20800;-66
2023/08/23 08:35:19;;;;;;;4.13;3.70;;;;;;;;;;5077426;28;20219;-66
2023/08/23 08:37:46;;;;;;;3.70;3.40;;;;;;;;;;5077378;28;20579;-66
2023/08/23 08:40:14;;;;;;;4.22;3.83;;;;;;;;;;5066248;28;20790;-66
2023/08/23 08:42:42;;;;;;;4.72;4.32;;;;;;;;;;5074052;28;20243;-66
2023/08/23 08:45:10;;;;;;;4.45;4.05;;;;;;;;;;5078196;28;20196;-66
2023/08/23 08:47:38;;;;;;;4.53;4.13;;;;;;;;;;5077472;28;20232;-66
2023/08/23 08:50:07;;;;;;;4.82;4.40;;;;;;;;;;5076579;28;20219;-65
2023/08/23 08:52:37;;;;;;;5.28;4.20;;;;;;;;;;5076250;28;20210;-66
2023/08/23 08:55:05;;;;;;;3.97;3.58;;;;;;;;;;5076793;28;20557;-65
2023/08/23 08:57:34;;;;;;;4.72;3.65;;;;;;;;;;5076958;28;20289;-65
2023/08/23 09:00:01;;;;;;;4.53;4.13;;;;;;;;;;5076853;28;20487;-66
2023/08/23 09:02:30;;;;;;;4.55;4.15;;;;;;;;;;5076718;28;20204;-65
2023/08/23 09:04:58;;;;;;;4.70;4.25;;;;;;;;;;5077158;28;20207;-66
2023/08/23 09:07:27;;;;;;;4.68;4.28;;;;;;;;;;5076123;28;20594;-66
2023/08/23 09:09:55;;;;;;;4.63;4.22;;;;;;;;;;5075433;28;20199;-65
2023/08/23 09:12:23;;;;;;;4.47;4.07;;;;;;;;;;5075727;28;20204;-66
2023/08/23 09:14:51;;;;;;;4.70;4.30;;;;;;;;;;5075613;28;20209;-66
2023/08/23 09:17:21;;;;;;;4.35;3.95;;;;;;;;;;5076458;28;20232;-65
2023/08/23 09:19:49;;;;;;;5.25;4.75;;;;;;;;;;5075810;28;20604;-65
2023/08/23 09:22:21;;;;;;;4.80;4.30;;;;;;;;;;5077177;28;20236;-65
2023/08/23 09:24:50;;;;;;;4.78;4.15;;;;;;;;;;5075866;28;20243;-65
2023/08/23 09:27:20;;;;;;;4.95;4.40;;;;;;;;;;5075453;28;20204;-65
2023/08/23 09:29:48;;;;;;;4.78;4.35;;;;;;;;;;5074593;28;20258;-65
2023/08/23 09:32:15;;;;;;;4.45;4.05;;;;;;;;;;5075684;28;20270;-65
2023/08/23 09:34:43;;;;;;;4.00;3.60;;;;;;;;;;5075924;28;20228;-65
2023/08/23 09:37:10;;;;;;;4.10;3.80;;;;;;;;;;5075214;28;20267;-65
2023/08/23 09:39:38;;;;;;;4.82;4.32;;;;;;;;;;5074863;28;20200;-65
2023/08/23 09:42:13;;;;;;;4.82;4.43;;;;;;;;;;5075252;28;20212;-66
2023/08/23 09:44:43;;;;;;;4.82;4.45;;;;;;;;;;5074642;28;20204;-66
2023/08/23 09:47:16;;;;;;;4.85;4.25;;;;;;;;;;5075362;28;20247;-65
2023/08/23 09:49:44;;;;;;;4.70;4.32;;;;;;;;;;5075514;28;20204;-66
2023/08/23 09:52:12;;;;;;;4.63;4.13;;;;;;;;;;5076113;28;20204;-65
2023/08/23 09:54:58;;;;;;;5.72;4.72;;;;;;;;;;5075099;28;20637;-66
2023/08/23 09:57:28;;;;;;;4.85;4.35;;;;;;;;;;5075397;28;20224;-65
2023/08/23 09:59:56;;;;;;;4.43;4.03;;;;;;;;;;5074611;28;20208;-66
2023/08/23 10:02:24;;;;;;;4.60;4.20;;;;;;;;;;5075366;28;20801;-65
2023/08/23 10:04:52;;;;;;;4.07;3.78;;;;;;;;;;5075344;28;20219;-66
2023/08/23 10:07:19;;;;;;;4.30;3.90;;;;;;;;;;5074687;28;20254;-65
2023/08/23 10:09:47;;;;;;;3.83;3.60;;;;;;;;;;5074358;28;20587;-65
2023/08/23 10:12:16;;;;;;;4.50;4.10;;;;;;;;;;5074634;28;20600;-65
2023/08/23 10:14:46;;;;;;;4.57;4.18;;;;;;;;;;5074406;28;20204;-66
2023/08/23 10:17:17;;;;;;;4.97;4.57;;;;;;;;;;5074320;28;20286;-65
2023/08/23 10:19:49;;;;;;;4.60;4.20;;;;;;;;;;5075354;28;20205;-65
2023/08/23 10:22:18;;;;;;;4.20;3.90;;;;;;;;;;5074651;28;20200;-66
2023/08/23 10:24:48;;;;;;;4.30;4.00;;;;;;;;;;5074351;28;20203;-65
2023/08/23 10:27:17;;;;;;;4.30;3.90;;;;;;;;;;5073724;28;20584;-66
2023/08/23 10:29:50;;;;;;;5.00;4.60;;;;;;;;;;5073771;28;20339;-65
2023/08/23 10:32:18;;;;;;;4.82;4.43;;;;;;;;;;5073727;28;20523;-65
2023/08/23 10:34:46;;;;;;;5.40;5.00;;;;;;;;;;5073627;28;20205;-65
2023/08/23 10:37:17;;;;;;;4.90;4.50;;;;;;;;;;5074284;28;20337;-66
2023/08/23 10:39:49;;;;;;;4.30;4.00;;;;;;;;;;5073038;28;20201;-65
2023/08/23 10:42:17;;;;;;;4.55;4.15;;;;;;;;;;5073574;28;20295;-66
2023/08/23 10:44:47;;;;;;;3.88;3.63;;;;;;;;;;5073999;28;20204;-65
2023/08/23 10:47:16;;;;;;;4.35;4.03;;;;;;;;;;5074256;28;20265;-65
2023/08/23 10:49:45;;;;;;;4.50;4.20;;;;;;;;;;5073983;28;20207;-65
2023/08/23 10:52:12;;;;;;;4.45;4.15;;;;;;;;;;5074650;28;20196;-65
2023/08/23 10:54:41;;;;;;;4.65;4.30;;;;;;;;;;5074415;28;20215;-66
2023/08/23 10:57:09;;;;;;;7.13;4.50;;;;;;;;;;5073558;28;20208;-66
2023/08/23 10:59:37;;;;;;;4.53;4.20;;;;;;;;;;5073695;28;20225;-65
2023/08/23 11:02:06;;;;;;;4.63;4.32;;;;;;;;;;5072819;28;20214;-66
2023/08/23 11:04:35;;;;;;;4.40;4.10;;;;;;;;;;5074787;28;20211;-65
2023/08/23 11:07:03;;;;;;;5.30;4.80;;;;;;;;;;5074755;28;20753;-65
2023/08/23 11:09:31;;;;;;;6.22;4.45;;;;;;;;;;5073426;28;20224;-65
2023/08/23 11:11:59;;;;;;;5.32;4.75;;;;;;;;;;5074181;28;20317;-65
2023/08/23 11:14:26;;;;;;;4.88;4.47;;;;;;;;;;5074641;28;20298;-65
2023/08/23 11:16:54;;;;;;;4.60;4.30;;;;;;;;;;5074090;28;20254;-65
2023/08/23 11:19:23;;;;;;;4.53;4.13;;;;;;;;;;5073070;28;20228;-65
2023/08/23 11:21:51;;;;;;;4.07;3.78;;;;;;;;;;5073871;28;20323;-65
2023/08/23 11:24:19;;;;;;;4.28;3.97;;;;;;;;;;5074287;28;20585;-65
2023/08/23 11:26:46;;;;;;;4.47;4.10;;;;;;;;;;5074600;28;20316;-65
2023/08/23 11:29:14;;;;;;;4.32;4.03;;;;;;;;;;5056991;28;20192;-65
2023/08/23 11:31:42;;;;;;;4.28;3.97;;;;;;;;;;5073223;28;20743;-65
2023/08/23 11:34:11;;;;;;;4.78;4.38;;;;;;;;;;5074087;28;20205;-65
2023/08/23 11:36:40;;;;;;;4.63;4.32;;;;;;;;;;5074029;28;20211;-66
2023/08/23 11:39:09;;;;;;;4.55;4.15;;;;;;;;;;5076241;28;20231;-65
2023/08/23 11:41:36;;;;;;;4.05;3.78;;;;;;;;;;5077666;28;20673;-66
2023/08/23 11:44:05;;;;;;;5.00;4.53;;;;;;;;;;5077056;28;20196;-65
2023/08/23 11:46:38;;;;;;;4.22;3.92;;;;;;;;;;5077606;28;20204;-65
2023/08/23 11:49:06;;;;;;;5.30;4.25;;;;;;;;;;5077208;28;20201;-65
2023/08/23 11:51:44;;;;;;;4.45;4.10;;;;;;;;;;5077271;28;20204;-65
2023/08/23 11:54:11;;;;;;;4.70;4.30;;;;;;;;;;5077184;28;20657;-66
2023/08/23 11:56:41;;;;;;;4.40;4.00;;;;;;;;;;5078113;28;20208;-66
2023/08/23 11:59:09;;;;;;;4.60;4.22;;;;;;;;;;5077373;28;20220;-65
2023/08/23 12:01:38;;;;;;;4.20;3.90;;;;;;;;;;5076863;28;20287;-65
2023/08/23 12:04:06;;;;;;;4.28;3.97;;;;;;;;;;5076665;28;20204;-65
2023/08/23 12:06:34;;;;;;;5.28;4.10;;;;;;;;;;5077980;28;20623;-65
2023/08/23 12:09:04;;;;;;;4.20;3.80;;;;;;;;;;5077651;28;20204;-66
2023/08/23 12:11:32;;;;;;;4.70;4.32;;;;;;;;;;5077444;28;20622;-65
2023/08/23 12:14:00;;;;;;;4.30;3.97;;;;;;;;;;5076685;28;20216;-65
2023/08/23 12:16:30;;;;;;;5.03;4.05;;;;;;;;;;5077004;28;20239;-66
2023/08/23 12:18:57;;;;;;;4.13;3.83;;;;;;;;;;5075945;28;20318;-66
2023/08/23 12:21:25;;;;;;;4.13;3.83;;;;;;;;;;5076874;28;20306;-65
2023/08/23 12:23:54;;;;;;;4.38;4.07;;;;;;;;;;5076507;28;20207;-65
2023/08/23 12:26:24;;;;;;;3.72;3.53;;;;;;;;;;5076596;28;20419;-65
2023/08/23 12:28:52;;;;;;;4.10;3.80;;;;;;;;;;5075952;28;20223;-66
2023/08/23 12:31:20;;;;;;;3.92;3.72;;;;;;;;;;5075857;28;20197;-66
2023/08/23 12:33:47;;;;;;;4.10;3.75;;;;;;;;;;5075915;28;20200;-65
2023/08/23 12:36:15;;;;;;;4.05;3.75;;;;;;;;;;5075925;28;20211;-66
2023/08/23 12:38:42;;;;;;;4.00;3.78;;;;;;;;;;5075061;28;20228;-66
2023/08/23 12:41:10;;;;;;;4.18;3.88;;;;;;;;;;5075736;28;20216;-65
2023/08/23 12:43:39;;;;;;;4.00;3.70;;;;;;;;;;5075199;28;20204;-65
2023/08/23 12:46:06;;;;;;;3.90;3.50;;;;;;;;;;5076513;28;20510;-66
2023/08/23 12:48:33;;;;;;;4.05;3.75;;;;;;;;;;5076156;28;20201;-66
2023/08/23 12:51:01;;;;;;;3.72;3.50;;;;;;;;;;5075286;28;20200;-65
2023/08/23 12:53:28;;;;;;;4.40;4.05;;;;;;;;;;5075616;28;20219;-66
2023/08/23 12:55:55;;;;;;;4.15;3.85;;;;;;;;;;5075932;28;20215;-65
2023/08/23 12:58:23;;;;;;;4.10;3.80;;;;;;;;;;5076913;28;20474;-65
2023/08/23 13:00:51;;;;;;;3.60;3.40;;;;;;;;;;5074887;28;20205;-65
2023/08/23 13:03:19;;;;;;;4.00;3.70;;;;;;;;;;5076848;28;20211;-65
2023/08/23 13:05:47;;;;;;;4.05;3.75;;;;;;;;;;5076033;28;20236;-65
2023/08/23 13:08:14;;;;;;;3.78;3.58;;;;;;;;;;5076660;28;20204;-65
2023/08/23 13:10:41;;;;;;;4.20;3.55;;;;;;;;;;5075840;28;20204;-65
2023/08/23 13:13:09;;;;;;;3.58;3.33;;;;;;;;;;5075713;28;20665;-65
2023/08/23 13:15:36;;;;;;;4.03;3.72;;;;;;;;;;5075338;28;20223;-65
2023/08/23 13:18:05;;;;;;;3.78;3.47;;;;;;;;;;5075348;28;20205;-66
2023/08/23 13:20:32;;;;;;;4.07;3.70;;;;;;;;;;5075521;28;20492;-66
2023/08/23 13:23:00;;;;;;;3.72;3.47;;;;;;;;;;5076121;28;20204;-65
2023/08/23 13:25:27;;;;;;;3.78;3.50;;;;;;;;;;5074927;28;20196;-66
2023/08/23 13:27:55;;;;;;;3.95;3.60;;;;;;;;;;5075937;28;20208;-66
2023/08/23 13:30:22;;;;;;;3.80;3.60;;;;;;;;;;5075095;28;20209;-65
2023/08/23 13:32:49;;;;;;;3.55;3.25;;;;;;;;;;5075896;28;20212;-65
2023/08/23 13:35:18;;;;;;;3.70;3.45;;;;;;;;;;5076048;28;20223;-65
2023/08/23 13:37:46;;;;;;;3.80;3.50;;;;;;;;;;5075058;28;20204;-66
2023/08/23 13:40:13;;;;;;;3.70;3.40;;;;;;;;;;5075409;28;20228;-65
2023/08/23 13:42:40;;;;;;;3.72;3.42;;;;;;;;;;5075845;28;20592;-66
2023/08/23 13:45:09;;;;;;;3.88;3.58;;;;;;;;;;5075408;28;20211;-65
2023/08/23 13:47:37;;;;;;;3.40;3.10;;;;;;;;;;5074918;28;20208;-65
2023/08/23 13:50:06;;;;;;;3.67;3.38;;;;;;;;;;5075348;28;20196;-66
2023/08/23 13:52:35;;;;;;;3.70;3.42;;;;;;;;;;5074986;28;20210;-65
2023/08/23 13:55:04;;;;;;;3.55;3.35;;;;;;;;;;5075322;28;20503;-65
2023/08/23 13:57:31;;;;;;;3.53;3.33;;;;;;;;;;5074701;28;20235;-65
2023/08/23 13:59:59;;;;;;;3.67;3.25;;;;;;;;;;5075137;28;20259;-66
2023/08/23 14:02:26;;;;;;;3.90;3.47;;;;;;;;;;5073878;28;20202;-66
2023/08/23 14:04:54;;;;;;;3.38;3.17;;;;;;;;;;5074545;28;20211;-66
2023/08/23 14:07:21;;;;;;;3.85;3.50;;;;;;;;;;5074470;28;20635;-66
2023/08/23 14:09:50;;;;;;;3.58;3.28;;;;;;;;;;5074635;28;20203;-66
2023/08/23 14:12:17;;;;;;;3.60;3.30;;;;;;;;;;5074596;28;20215;-66
2023/08/23 14:14:44;;;;;;;3.30;3.10;;;;;;;;;;5074391;28;20211;-66
2023/08/23 14:17:12;;;;;;;3.33;3.10;;;;;;;;;;5072096;28;20204;-66
2023/08/23 14:19:45;;;;;;;3.67;3.38;;;;;;;;;;5073413;28;20220;-66
2023/08/23 14:22:13;;;;;;;3.55;3.25;;;;;;;;;;5073105;28;20208;-65
2023/08/23 14:24:40;;;;;;;3.20;3.00;;;;;;;;;;5074735;28;20210;-66
2023/08/23 14:27:10;;;;;;;3.50;3.20;;;;;;;;;;5074336;28;20215;-67
2023/08/23 14:29:37;;;;;;;3.40;3.10;;;;;;;;;;5074579;28;20610;-66
2023/08/23 14:32:05;;;;;;;3.53;3.30;;;;;;;;;;5075145;28;20204;-66
2023/08/23 14:34:34;;;;;;;3.60;3.33;;;;;;;;;;5075028;28;20200;-66
2023/08/23 14:37:03;;;;;;;2.88;2.67;;;;;;;;;;5074813;28;20588;-66
2023/08/23 14:39:30;;;;;;;3.10;2.90;;;;;;;;;;5074093;28;20227;-66
2023/08/23 14:41:57;;;;;;;3.30;3.10;;;;;;;;;;5074813;28;20201;-66
2023/08/23 14:44:29;;;;;;;3.20;3.00;;;;;;;;;;5073915;28;20200;-65
2023/08/23 14:46:57;;;;;;;3.40;3.10;;;;;;;;;;5074743;28;20470;-66
2023/08/23 14:49:24;;;;;;;3.60;3.30;;;;;;;;;;5074815;28;20211;-65